Time;durP1;ratioP1;P1;durP2;ratioP2;P2;SDS_P1;SDS_P2;PMS_P1;PMS_P2;Temp;Humidity;BMP_temperature;BMP_pressure;BME280_temperature;BME280_humidity;BME280_pressure;Samples;Min_cycle;Max_cycle;Signal;HPM_P1;HPM_P2
2023/06/24 00:02:09;;;;;;;9.85;6.80;;;;;;;;;;4990749;28;20033;-59
2023/06/24 00:04:34;;;;;;;11.95;6.72;;;;;;;;;;5011503;28;20092;-58
2023/06/24 00:07:00;;;;;;;9.18;6.65;;;;;;;;;;5010088;28;20092;-59
2023/06/24 00:09:29;;;;;;;9.30;6.68;;;;;;;;;;5005292;28;20033;-58
2023/06/24 00:11:56;;;;;;;9.35;6.57;;;;;;;;;;5008705;28;21259;-60
2023/06/24 00:14:24;;;;;;;9.63;6.88;;;;;;;;;;4991982;28;20046;-59
2023/06/24 00:16:51;;;;;;;10.88;8.02;;;;;;;;;;4994174;28;20034;-59
2023/06/24 00:19:26;;;;;;;11.95;7.40;;;;;;;;;;5003331;28;20034;-58
2023/06/24 00:21:52;;;;;;;9.13;6.65;;;;;;;;;;5012865;28;20117;-59
2023/06/24 00:24:25;;;;;;;11.48;6.70;;;;;;;;;;5013983;28;20037;-58
2023/06/24 00:26:53;;;;;;;9.68;6.45;;;;;;;;;;5011818;28;20048;-59
2023/06/24 00:29:19;;;;;;;8.85;6.57;;;;;;;;;;5014627;28;20034;-58
2023/06/24 00:31:44;;;;;;;9.30;6.63;;;;;;;;;;5010487;28;20034;-58
2023/06/24 00:34:09;;;;;;;8.35;6.43;;;;;;;;;;5014066;28;20057;-57
2023/06/24 00:36:38;;;;;;;9.75;6.80;;;;;;;;;;5011868;28;20034;-57
2023/06/24 00:39:05;;;;;;;9.73;6.55;;;;;;;;;;5008121;28;20030;-58
2023/06/24 00:41:31;;;;;;;9.35;6.80;;;;;;;;;;5027336;28;20064;-58
2023/06/24 00:43:57;;;;;;;8.88;6.72;;;;;;;;;;5012151;28;20484;-56
2023/06/24 00:46:25;;;;;;;10.00;6.55;;;;;;;;;;5013012;28;20049;-58
2023/06/24 00:48:54;;;;;;;10.93;7.20;;;;;;;;;;5012581;28;20038;-57
2023/06/24 00:51:21;;;;;;;12.27;6.90;;;;;;;;;;5014077;28;20033;-59
2023/06/24 00:53:47;;;;;;;12.02;7.75;;;;;;;;;;5009735;28;20038;-58
2023/06/24 00:56:16;;;;;;;10.88;7.50;;;;;;;;;;5013437;28;20635;-59
2023/06/24 00:58:43;;;;;;;10.50;7.50;;;;;;;;;;5012867;28;20038;-59
2023/06/24 01:01:09;;;;;;;11.00;7.95;;;;;;;;;;5013178;28;20546;-58
2023/06/24 01:03:37;;;;;;;12.07;7.72;;;;;;;;;;5006719;28;20042;-58
2023/06/24 01:06:03;;;;;;;10.65;7.78;;;;;;;;;;5015697;28;20454;-58
2023/06/24 01:08:28;;;;;;;11.63;7.70;;;;;;;;;;5018023;28;20034;-59
2023/06/24 01:10:54;;;;;;;13.23;8.48;;;;;;;;;;4996365;28;20445;-58
2023/06/24 01:13:19;;;;;;;14.23;8.32;;;;;;;;;;5010695;28;20030;-58
2023/06/24 01:15:46;;;;;;;12.55;8.50;;;;;;;;;;5013928;28;20360;-59
2023/06/24 01:18:34;;;;;;;11.88;8.27;;;;;;;;;;5011703;28;20041;-59
2023/06/24 01:21:14;;;;;;;13.18;8.20;;;;;;;;;;4996134;28;20029;-59
2023/06/24 01:24:17;;;;;;;17.42;8.95;;;;;;;;;;5014070;28;20038;-59
2023/06/24 01:26:54;;;;;;;11.85;8.35;;;;;;;;;;5009296;28;20053;-59
2023/06/24 01:29:46;;;;;;;12.43;7.97;;;;;;;;;;5013318;28;20050;-58
2023/06/24 01:32:18;;;;;;;13.65;8.57;;;;;;;;;;5011432;28;20029;-58
2023/06/24 01:35:12;;;;;;;11.90;8.30;;;;;;;;;;5024142;28;20112;-59
2023/06/24 01:37:43;;;;;;;11.57;8.43;;;;;;;;;;5014440;28;20471;-58
2023/06/24 01:40:15;;;;;;;13.98;7.93;;;;;;;;;;4991734;28;20038;-58
2023/06/24 01:42:42;;;;;;;12.05;8.32;;;;;;;;;;4993821;28;20027;-58
2023/06/24 01:45:12;;;;;;;11.40;8.07;;;;;;;;;;4993229;28;20117;-57
2023/06/24 01:47:42;;;;;;;11.88;7.72;;;;;;;;;;4996551;28;20157;-58
2023/06/24 01:50:11;;;;;;;11.10;7.82;;;;;;;;;;4993056;28;20030;-59
2023/06/24 01:52:39;;;;;;;10.13;8.20;;;;;;;;;;4992516;28;20417;-58
2023/06/24 01:55:07;;;;;;;10.77;8.00;;;;;;;;;;5001064;28;20091;-58
2023/06/24 01:57:36;;;;;;;12.05;9.00;;;;;;;;;;4992973;28;20109;-58
2023/06/24 02:00:06;;;;;;;12.73;8.75;;;;;;;;;;5009484;28;20390;-58
2023/06/24 02:02:32;;;;;;;10.37;8.50;;;;;;;;;;5023915;28;20025;-58
2023/06/24 02:04:59;;;;;;;12.23;9.02;;;;;;;;;;5032404;28;20029;-58
2023/06/24 02:07:26;;;;;;;11.88;8.63;;;;;;;;;;5015910;28;20041;-58
2023/06/24 02:09:52;;;;;;;13.02;8.60;;;;;;;;;;5013072;28;20097;-58
2023/06/24 02:12:19;;;;;;;12.50;8.77;;;;;;;;;;5012002;28;20026;-58
2023/06/24 02:14:46;;;;;;;13.10;8.52;;;;;;;;;;5008034;28;20629;-58
2023/06/24 02:17:13;;;;;;;12.82;8.30;;;;;;;;;;5000690;28;20374;-57
2023/06/24 02:19:40;;;;;;;12.27;8.50;;;;;;;;;;4993272;28;20031;-58
2023/06/24 02:22:09;;;;;;;12.02;8.55;;;;;;;;;;4992382;28;20109;-58
2023/06/24 02:24:36;;;;;;;12.82;8.63;;;;;;;;;;4991822;28;20518;-58
2023/06/24 02:27:03;;;;;;;14.93;9.05;;;;;;;;;;5005603;28;20029;-59
2023/06/24 02:29:30;;;;;;;11.90;8.90;;;;;;;;;;5006628;28;20092;-55
2023/06/24 02:31:56;;;;;;;12.63;8.43;;;;;;;;;;5011254;28;20026;-56
2023/06/24 02:34:23;;;;;;;11.40;8.55;;;;;;;;;;5011625;28;20109;-58
2023/06/24 02:36:49;;;;;;;13.85;9.85;;;;;;;;;;5011198;28;20494;-58
2023/06/24 02:39:14;;;;;;;11.98;9.02;;;;;;;;;;4994513;28;20038;-58
2023/06/24 02:41:40;;;;;;;12.00;9.18;;;;;;;;;;4992087;28;20050;-58
2023/06/24 02:44:05;;;;;;;11.95;9.27;;;;;;;;;;4991880;28;20034;-59
2023/06/24 02:46:34;;;;;;;13.38;8.85;;;;;;;;;;4992714;28;20034;-58
2023/06/24 02:48:59;;;;;;;13.70;8.48;;;;;;;;;;4992773;28;20026;-57
2023/06/24 02:51:26;;;;;;;11.60;8.38;;;;;;;;;;4992135;28;20038;-58
2023/06/24 02:53:52;;;;;;;15.23;8.57;;;;;;;;;;5005534;28;20088;-58
2023/06/24 02:56:20;;;;;;;13.25;9.07;;;;;;;;;;5011382;28;20113;-58
2023/06/24 02:58:47;;;;;;;11.55;8.57;;;;;;;;;;5010066;28;20030;-58
2023/06/24 03:01:12;;;;;;;13.80;9.25;;;;;;;;;;4993974;28;20096;-58
2023/06/24 03:03:39;;;;;;;12.35;9.10;;;;;;;;;;4992576;28;20510;-58
2023/06/24 03:06:05;;;;;;;11.55;8.32;;;;;;;;;;4990681;28;20030;-59
2023/06/24 03:08:31;;;;;;;13.55;8.88;;;;;;;;;;4995838;28;20394;-57
2023/06/24 03:10:57;;;;;;;10.88;8.43;;;;;;;;;;5017387;28;20041;-58
2023/06/24 03:13:23;;;;;;;11.55;8.52;;;;;;;;;;5008193;28;20034;-58
2023/06/24 03:15:48;;;;;;;11.20;8.30;;;;;;;;;;5010695;28;20037;-58
2023/06/24 03:18:14;;;;;;;11.85;8.38;;;;;;;;;;5009701;28;20113;-59
2023/06/24 03:20:39;;;;;;;14.07;9.10;;;;;;;;;;5011803;28;20037;-56
2023/06/24 03:23:08;;;;;;;10.85;8.70;;;;;;;;;;5011363;28;20109;-58
2023/06/24 03:25:34;;;;;;;11.98;8.60;;;;;;;;;;5023930;28;20037;-57
2023/06/24 03:28:00;;;;;;;11.82;8.48;;;;;;;;;;5031530;28;20025;-58
2023/06/24 03:30:26;;;;;;;9.98;8.10;;;;;;;;;;5030572;28;20070;-56
2023/06/24 03:32:52;;;;;;;13.10;8.60;;;;;;;;;;5031827;28;20033;-58
2023/06/24 03:35:17;;;;;;;10.20;8.18;;;;;;;;;;5030490;28;20032;-57
2023/06/24 03:37:43;;;;;;;10.45;8.43;;;;;;;;;;5021653;28;20029;-57
2023/06/24 03:40:09;;;;;;;12.25;8.75;;;;;;;;;;5005540;28;20032;-57
2023/06/24 03:42:34;;;;;;;12.48;8.02;;;;;;;;;;5008312;28;20057;-58
2023/06/24 03:45:00;;;;;;;12.15;8.40;;;;;;;;;;5011240;28;20065;-55
2023/06/24 03:47:25;;;;;;;14.20;8.80;;;;;;;;;;5010668;28;20029;-56
2023/06/24 03:49:50;;;;;;;10.70;7.78;;;;;;;;;;5011665;28;20478;-58
2023/06/24 03:52:17;;;;;;;11.15;7.95;;;;;;;;;;5020898;28;20029;-58
2023/06/24 03:54:42;;;;;;;11.63;8.43;;;;;;;;;;5035112;28;20033;-58
2023/06/24 03:57:08;;;;;;;12.23;8.45;;;;;;;;;;5034413;28;20387;-59
2023/06/24 03:59:34;;;;;;;13.57;8.40;;;;;;;;;;4996764;28;20035;-57
2023/06/24 04:02:00;;;;;;;13.60;9.25;;;;;;;;;;5000465;28;20030;-58
2023/06/24 04:04:26;;;;;;;12.20;8.73;;;;;;;;;;5014750;28;20110;-58
2023/06/24 04:06:51;;;;;;;12.68;8.88;;;;;;;;;;5001191;28;20052;-57
2023/06/24 04:09:16;;;;;;;15.18;8.57;;;;;;;;;;5003243;28;20026;-57
2023/06/24 04:11:42;;;;;;;12.20;8.80;;;;;;;;;;5015495;28;20125;-58
2023/06/24 04:14:09;;;;;;;13.23;9.20;;;;;;;;;;5014942;28;20034;-56
2023/06/24 04:16:35;;;;;;;12.70;9.18;;;;;;;;;;5015485;28;20482;-59
2023/06/24 04:19:01;;;;;;;15.18;8.23;;;;;;;;;;5013910;28;20038;-59
2023/06/24 04:21:26;;;;;;;11.10;7.80;;;;;;;;;;4995965;28;20026;-59
2023/06/24 04:23:52;;;;;;;13.27;8.60;;;;;;;;;;4995831;28;20191;-56
2023/06/24 04:26:17;;;;;;;11.63;8.45;;;;;;;;;;4995561;28;20458;-57
2023/06/24 04:28:43;;;;;;;11.55;8.15;;;;;;;;;;5004173;28;20056;-57
2023/06/24 04:31:08;;;;;;;12.43;7.93;;;;;;;;;;5014152;28;20030;-57
2023/06/24 04:33:33;;;;;;;14.38;8.27;;;;;;;;;;5009090;28;20460;-57
2023/06/24 04:36:00;;;;;;;14.98;9.40;;;;;;;;;;5015125;28;20036;-59
2023/06/24 04:38:25;;;;;;;12.60;8.73;;;;;;;;;;5004523;28;20049;-57
2023/06/24 04:40:50;;;;;;;12.68;8.68;;;;;;;;;;4994994;28;20108;-57
2023/06/24 04:43:16;;;;;;;15.98;8.30;;;;;;;;;;4994633;28;20030;-56
2023/06/24 04:45:41;;;;;;;15.43;8.50;;;;;;;;;;4995166;28;20460;-57
2023/06/24 04:48:07;;;;;;;10.98;8.05;;;;;;;;;;4993431;28;20151;-57
2023/06/24 04:50:32;;;;;;;12.30;8.00;;;;;;;;;;5013475;28;20038;-57
2023/06/24 04:52:58;;;;;;;10.65;7.70;;;;;;;;;;5006789;28;20034;-55
2023/06/24 04:55:23;;;;;;;9.50;7.70;;;;;;;;;;4994410;28;20062;-57
2023/06/24 04:57:49;;;;;;;10.93;7.55;;;;;;;;;;5026619;28;20462;-57
2023/06/24 05:00:14;;;;;;;9.77;7.40;;;;;;;;;;5013913;28;20473;-55
2023/06/24 05:02:40;;;;;;;12.07;7.45;;;;;;;;;;5012958;28;20037;-56
2023/06/24 05:05:06;;;;;;;10.77;7.60;;;;;;;;;;5017893;28;20033;-57
2023/06/24 05:07:32;;;;;;;10.80;7.07;;;;;;;;;;5033322;28;20042;-57
2023/06/24 05:09:57;;;;;;;12.98;7.22;;;;;;;;;;5025869;28;20482;-55
2023/06/24 05:12:23;;;;;;;12.57;6.97;;;;;;;;;;5013714;28;20041;-56
2023/06/24 05:14:52;;;;;;;8.75;7.18;;;;;;;;;;5014576;28;20048;-55
2023/06/24 05:17:18;;;;;;;11.25;7.00;;;;;;;;;;5017066;28;20030;-57
2023/06/24 05:19:44;;;;;;;10.90;7.63;;;;;;;;;;5013425;28;20042;-57
2023/06/24 05:22:09;;;;;;;11.32;7.38;;;;;;;;;;5021295;28;20541;-57
2023/06/24 05:24:34;;;;;;;13.15;7.28;;;;;;;;;;5033229;28;20025;-57
2023/06/24 05:27:05;;;;;;;9.45;7.20;;;;;;;;;;5018906;28;20041;-57
2023/06/24 05:29:31;;;;;;;10.57;6.82;;;;;;;;;;4996681;28;20052;-57
2023/06/24 05:31:56;;;;;;;9.15;7.07;;;;;;;;;;4994627;28;20058;-56
2023/06/24 05:34:21;;;;;;;9.75;7.13;;;;;;;;;;5027631;28;20029;-56
2023/06/24 05:36:47;;;;;;;13.82;7.72;;;;;;;;;;5029003;28;20037;-56
2023/06/24 05:39:13;;;;;;;11.00;7.30;;;;;;;;;;5023385;28;20041;-58
2023/06/24 05:41:39;;;;;;;11.27;7.15;;;;;;;;;;4994125;28;20046;-56
2023/06/24 05:44:07;;;;;;;12.80;7.40;;;;;;;;;;5011616;28;20029;-57
2023/06/24 05:46:33;;;;;;;10.68;7.30;;;;;;;;;;5024276;28;20567;-59
2023/06/24 05:48:58;;;;;;;10.25;7.35;;;;;;;;;;5013711;28;20041;-58
2023/06/24 05:51:24;;;;;;;10.38;7.47;;;;;;;;;;5012932;28;20040;-58
2023/06/24 05:53:49;;;;;;;14.85;7.78;;;;;;;;;;5012547;28;20029;-59
2023/06/24 05:56:15;;;;;;;11.55;7.13;;;;;;;;;;5012765;28;20030;-59
2023/06/24 05:58:40;;;;;;;10.90;6.93;;;;;;;;;;5013760;28;20590;-59
2023/06/24 06:01:07;;;;;;;9.98;7.38;;;;;;;;;;5008790;28;20037;-58
2023/06/24 06:03:32;;;;;;;9.70;7.18;;;;;;;;;;5015924;28;20613;-59
2023/06/24 06:05:58;;;;;;;12.30;6.93;;;;;;;;;;5013339;28;20033;-59
2023/06/24 06:08:23;;;;;;;11.32;7.32;;;;;;;;;;5010660;28;20078;-57
2023/06/24 06:10:49;;;;;;;11.48;6.53;;;;;;;;;;5010014;28;20045;-56
2023/06/24 06:13:14;;;;;;;9.48;6.50;;;;;;;;;;5012993;28;20034;-57
2023/06/24 06:15:39;;;;;;;9.35;6.85;;;;;;;;;;5012765;28;20072;-58
2023/06/24 06:18:05;;;;;;;11.68;6.70;;;;;;;;;;5012705;28;20030;-59
2023/06/24 06:20:30;;;;;;;9.32;6.72;;;;;;;;;;5012093;28;20183;-58
2023/06/24 06:22:56;;;;;;;10.13;6.40;;;;;;;;;;5013201;28;20032;-55
2023/06/24 06:25:21;;;;;;;8.60;6.45;;;;;;;;;;5012322;28;20379;-57
2023/06/24 06:27:47;;;;;;;11.00;6.15;;;;;;;;;;5013255;28;20041;-56
2023/06/24 06:30:13;;;;;;;10.18;6.68;;;;;;;;;;5013809;28;20049;-61
2023/06/24 06:32:39;;;;;;;9.05;6.45;;;;;;;;;;5012582;28;20080;-58
2023/06/24 06:35:05;;;;;;;8.98;6.05;;;;;;;;;;5012155;28;20033;-58
2023/06/24 06:37:30;;;;;;;9.85;6.25;;;;;;;;;;5010784;28;20029;-56
2023/06/24 06:39:55;;;;;;;10.02;6.60;;;;;;;;;;5004352;28;20472;-57
2023/06/24 06:42:21;;;;;;;10.75;6.35;;;;;;;;;;5010682;28;20144;-58
2023/06/24 06:44:46;;;;;;;9.55;5.88;;;;;;;;;;5014078;28;20033;-58
2023/06/24 06:47:12;;;;;;;8.48;5.85;;;;;;;;;;5032277;28;20025;-58
2023/06/24 06:49:37;;;;;;;9.60;5.93;;;;;;;;;;5000657;28;20461;-58
2023/06/24 06:52:03;;;;;;;9.13;6.20;;;;;;;;;;5012231;28;20507;-57
2023/06/24 06:54:28;;;;;;;8.95;6.07;;;;;;;;;;5003828;28;20042;-58
2023/06/24 06:56:55;;;;;;;8.23;6.00;;;;;;;;;;4992730;28;20027;-57
2023/06/24 06:59:20;;;;;;;10.40;6.53;;;;;;;;;;4999426;28;20482;-57
2023/06/24 07:01:46;;;;;;;10.60;6.80;;;;;;;;;;5012526;28;20033;-57
2023/06/24 07:04:11;;;;;;;13.43;7.03;;;;;;;;;;5023835;28;20040;-58
2023/06/24 07:06:37;;;;;;;9.30;7.10;;;;;;;;;;5028740;28;20025;-56
2023/06/24 07:09:02;;;;;;;11.13;7.95;;;;;;;;;;5026712;28;20029;-58
2023/06/24 07:11:27;;;;;;;9.90;6.90;;;;;;;;;;4999930;28;20030;-57
2023/06/24 07:13:53;;;;;;;11.40;7.13;;;;;;;;;;5011655;28;20383;-58
2023/06/24 07:16:18;;;;;;;10.15;7.30;;;;;;;;;;4999555;28;20033;-59
2023/06/24 07:18:44;;;;;;;10.50;7.57;;;;;;;;;;4992631;28;20054;-58
2023/06/24 07:21:09;;;;;;;10.05;7.25;;;;;;;;;;5000368;28;20367;-57
2023/06/24 07:23:34;;;;;;;11.65;7.40;;;;;;;;;;5001214;28;20084;-53
2023/06/24 07:26:00;;;;;;;10.63;7.30;;;;;;;;;;5007805;28;20034;-57
2023/06/24 07:28:25;;;;;;;11.43;8.05;;;;;;;;;;5010539;28;20037;-58
2023/06/24 07:30:51;;;;;;;10.25;7.93;;;;;;;;;;5007852;28;20042;-58
2023/06/24 07:33:16;;;;;;;13.20;8.00;;;;;;;;;;5008259;28;20544;-58
2023/06/24 07:35:42;;;;;;;9.57;7.32;;;;;;;;;;5011075;28;20037;-57
2023/06/24 07:38:07;;;;;;;11.13;7.53;;;;;;;;;;5010677;28;20075;-55
2023/06/24 07:40:33;;;;;;;11.45;8.90;;;;;;;;;;5010712;28;20493;-57
2023/06/24 07:42:58;;;;;;;9.73;7.63;;;;;;;;;;5009253;28;20044;-55
2023/06/24 07:45:25;;;;;;;13.32;8.77;;;;;;;;;;5009800;28;20033;-58
2023/06/24 07:47:50;;;;;;;11.40;8.30;;;;;;;;;;5018054;28;20042;-57
2023/06/24 07:50:16;;;;;;;10.93;8.48;;;;;;;;;;5031133;28;20440;-58
2023/06/24 07:52:41;;;;;;;12.20;8.57;;;;;;;;;;5030761;28;20486;-58
2023/06/24 07:55:07;;;;;;;11.93;9.25;;;;;;;;;;5031346;28;20105;-58
2023/06/24 07:57:32;;;;;;;11.65;8.90;;;;;;;;;;5030401;28;20455;-57
2023/06/24 07:59:58;;;;;;;11.77;9.32;;;;;;;;;;5019549;28;20073;-57
2023/06/24 08:02:24;;;;;;;14.73;10.00;;;;;;;;;;5010844;28;20561;-58
2023/06/24 08:04:49;;;;;;;13.27;9.35;;;;;;;;;;5011598;28;20035;-57
2023/06/24 08:07:15;;;;;;;12.10;9.57;;;;;;;;;;5011238;28;20105;-55
2023/06/24 08:09:40;;;;;;;13.60;10.02;;;;;;;;;;5009537;28;20042;-56
2023/06/24 08:12:06;;;;;;;14.20;9.60;;;;;;;;;;5011383;28;20456;-57
2023/06/24 08:14:32;;;;;;;14.77;10.30;;;;;;;;;;5009334;28;20120;-57
2023/06/24 08:16:57;;;;;;;13.32;10.60;;;;;;;;;;5009803;28;20022;-53
2023/06/24 08:19:23;;;;;;;14.65;10.25;;;;;;;;;;5010693;28;20026;-59
2023/06/24 08:21:49;;;;;;;19.00;10.13;;;;;;;;;;5011492;28;20045;-57
2023/06/24 08:24:14;;;;;;;14.65;10.80;;;;;;;;;;5009932;28;20022;-56
2023/06/24 08:26:40;;;;;;;14.52;11.10;;;;;;;;;;4998990;28;20586;-57
2023/06/24 08:29:06;;;;;;;19.17;14.18;;;;;;;;;;5010094;28;20030;-56
2023/06/24 08:31:32;;;;;;;16.27;12.45;;;;;;;;;;5017684;28;20476;-58
2023/06/24 08:34:01;;;;;;;15.82;11.45;;;;;;;;;;5010882;28;20109;-60
2023/06/24 08:36:27;;;;;;;17.70;12.05;;;;;;;;;;5011177;28;20395;-57
2023/06/24 08:38:53;;;;;;;17.52;12.40;;;;;;;;;;5018816;28;20030;-56
2023/06/24 08:41:18;;;;;;;18.70;13.15;;;;;;;;;;5030575;28;20140;-58
2023/06/24 08:43:44;;;;;;;18.15;13.50;;;;;;;;;;5013470;28;20030;-58
2023/06/24 08:46:10;;;;;;;16.83;13.30;;;;;;;;;;5014829;28;20100;-57
2023/06/24 08:48:40;;;;;;;16.88;12.50;;;;;;;;;;5002865;28;20034;-57
2023/06/24 08:51:08;;;;;;;16.17;11.77;;;;;;;;;;5005640;28;20450;-56
2023/06/24 08:53:34;;;;;;;18.30;13.07;;;;;;;;;;5018479;28;20044;-56
2023/06/24 08:56:00;;;;;;;17.38;10.88;;;;;;;;;;5034447;28;20033;-57
2023/06/24 08:58:25;;;;;;;16.33;11.75;;;;;;;;;;5011451;28;20088;-57
2023/06/24 09:00:51;;;;;;;16.90;12.15;;;;;;;;;;5013259;28;20045;-57
2023/06/24 09:03:16;;;;;;;16.60;11.82;;;;;;;;;;5014517;28;20034;-56
2023/06/24 09:05:44;;;;;;;16.02;10.82;;;;;;;;;;5011987;28;20113;-58
2023/06/24 09:08:09;;;;;;;17.20;11.35;;;;;;;;;;5006944;28;20026;-57
2023/06/24 09:10:36;;;;;;;17.63;11.73;;;;;;;;;;5013441;28;20056;-58
2023/06/24 09:13:03;;;;;;;15.07;10.98;;;;;;;;;;5002125;28;20033;-57
2023/06/24 09:15:32;;;;;;;14.13;9.75;;;;;;;;;;4994222;28;20030;-56
2023/06/24 09:18:02;;;;;;;12.73;8.80;;;;;;;;;;4994754;28;20053;-55
2023/06/24 09:20:28;;;;;;;16.90;8.35;;;;;;;;;;4997799;28;20120;-55
2023/06/24 09:23:01;;;;;;;11.45;6.97;;;;;;;;;;5028135;28;20064;-56
2023/06/24 09:25:27;;;;;;;12.00;7.57;;;;;;;;;;5020666;28;20033;-57
2023/06/24 09:27:53;;;;;;;10.43;7.07;;;;;;;;;;5021490;28;20055;-56
2023/06/24 09:30:20;;;;;;;11.43;6.90;;;;;;;;;;5032014;28;20103;-54
2023/06/24 09:32:47;;;;;;;12.90;7.97;;;;;;;;;;5001093;28;20029;-56
2023/06/24 09:35:12;;;;;;;12.65;7.30;;;;;;;;;;5007949;28;20030;-58
2023/06/24 09:37:38;;;;;;;12.13;8.15;;;;;;;;;;5015448;28;20374;-57
2023/06/24 09:40:05;;;;;;;12.48;7.25;;;;;;;;;;5013036;28;20309;-63
2023/06/24 09:42:31;;;;;;;14.35;7.32;;;;;;;;;;5010685;28;20507;-63
2023/06/24 09:44:57;;;;;;;13.10;6.78;;;;;;;;;;5016712;28;20030;-62
2023/06/24 09:47:27;;;;;;;12.70;6.78;;;;;;;;;;5013417;28;20058;-67
2023/06/24 09:49:53;;;;;;;9.77;5.93;;;;;;;;;;5029195;28;20140;-64
2023/06/24 09:52:20;;;;;;;9.32;6.05;;;;;;;;;;5032019;28;20087;-63
2023/06/24 09:54:48;;;;;;;9.18;5.90;;;;;;;;;;5032560;28;20347;-57
2023/06/24 09:57:15;;;;;;;11.20;6.68;;;;;;;;;;5021674;28;20042;-57
2023/06/24 09:59:41;;;;;;;8.60;5.65;;;;;;;;;;4992794;28;20122;-61
2023/06/24 10:02:12;;;;;;;9.57;4.97;;;;;;;;;;4993862;28;20181;-61
2023/06/24 10:04:38;;;;;;;9.05;5.43;;;;;;;;;;4993016;28;20043;-59
2023/06/24 10:07:04;;;;;;;9.07;4.32;;;;;;;;;;4994101;28;20033;-59
2023/06/24 10:09:29;;;;;;;7.90;4.22;;;;;;;;;;4992832;28;20382;-62
2023/06/24 10:11:55;;;;;;;7.40;4.50;;;;;;;;;;4994908;28;20120;-56
2023/06/24 10:14:20;;;;;;;6.97;4.38;;;;;;;;;;5013156;28;20080;-59
2023/06/24 10:16:46;;;;;;;8.40;3.95;;;;;;;;;;5012176;28;20044;-58
2023/06/24 10:19:19;;;;;;;7.13;4.20;;;;;;;;;;5013011;28;20034;-56
2023/06/24 10:21:52;;;;;;;5.88;4.00;;;;;;;;;;5028421;28;20069;-56
2023/06/24 10:24:35;;;;;;;6.90;4.50;;;;;;;;;;5032937;28;20116;-54
2023/06/24 10:27:07;;;;;;;6.95;4.68;;;;;;;;;;5022387;28;20049;-62
2023/06/24 10:29:37;;;;;;;6.97;4.22;;;;;;;;;;5017870;28;20555;-61
2023/06/24 10:32:09;;;;;;;5.95;4.00;;;;;;;;;;5012905;28;20040;-61
2023/06/24 10:34:37;;;;;;;6.95;4.00;;;;;;;;;;5010730;28;20037;-61
2023/06/24 10:37:10;;;;;;;7.60;4.07;;;;;;;;;;5012420;28;20080;-61
2023/06/24 10:39:42;;;;;;;5.90;4.03;;;;;;;;;;5011724;28;20038;-61
2023/06/24 10:42:27;;;;;;;6.25;4.10;;;;;;;;;;5011214;28;20049;-61
2023/06/24 10:45:13;;;;;;;8.07;4.03;;;;;;;;;;5012189;28;20026;-61
2023/06/24 10:47:44;;;;;;;6.32;4.30;;;;;;;;;;5011986;28;20168;-61
2023/06/24 10:50:29;;;;;;;6.35;3.88;;;;;;;;;;5012558;28;20113;-63
2023/06/24 10:52:56;;;;;;;8.18;4.00;;;;;;;;;;5011839;28;20046;-61
2023/06/24 10:55:24;;;;;;;5.50;3.80;;;;;;;;;;5011266;28;20045;-62
2023/06/24 10:57:49;;;;;;;4.65;3.25;;;;;;;;;;5012750;28;20061;-61
2023/06/24 11:00:15;;;;;;;5.50;3.60;;;;;;;;;;5011866;28;20053;-61
2023/06/24 11:02:41;;;;;;;9.38;3.95;;;;;;;;;;5011563;28;20459;-62
2023/06/24 11:05:07;;;;;;;7.75;4.10;;;;;;;;;;4996105;28;20039;-64
2023/06/24 11:07:35;;;;;;;5.00;3.80;;;;;;;;;;4993141;28;20042;-62
2023/06/24 11:10:05;;;;;;;5.38;3.45;;;;;;;;;;5004999;28;20044;-63
2023/06/24 11:12:32;;;;;;;6.55;4.00;;;;;;;;;;5011827;28;20061;-65
2023/06/24 11:14:59;;;;;;;5.25;3.60;;;;;;;;;;5012220;28;20442;-64
2023/06/24 11:17:25;;;;;;;8.20;4.53;;;;;;;;;;5010806;28;20060;-66
2023/06/24 11:19:55;;;;;;;6.20;3.80;;;;;;;;;;5008418;28;20034;-63
2023/06/24 11:22:21;;;;;;;;;;;;;;;;;;5008192;28;20038;-62
2023/06/24 11:24:47;;;;;;;6.25;4.10;;;;;;;;;;5011452;28;20008;-64
2023/06/24 11:27:12;;;;;;;8.00;3.85;;;;;;;;;;5004882;28;20057;-66
2023/06/24 11:29:38;;;;;;;6.65;3.70;;;;;;;;;;5010003;28;20029;-65
2023/06/24 11:32:07;;;;;;;6.15;3.92;;;;;;;;;;5012099;28;20036;-65
2023/06/24 11:34:33;;;;;;;5.57;3.63;;;;;;;;;;5011065;28;20026;-64
2023/06/24 11:36:58;;;;;;;7.03;3.95;;;;;;;;;;5011625;28;20030;-65
2023/06/24 11:39:25;;;;;;;6.72;3.60;;;;;;;;;;5011729;28;20467;-63
2023/06/24 11:41:51;;;;;;;6.00;4.00;;;;;;;;;;5001163;28;20057;-64
2023/06/24 11:44:21;;;;;;;6.03;3.92;;;;;;;;;;4992190;28;20077;-63
2023/06/24 11:46:47;;;;;;;5.43;3.80;;;;;;;;;;4991546;28;20030;-63
2023/06/24 11:49:14;;;;;;;7.57;3.92;;;;;;;;;;4991985;28;20026;-67
2023/06/24 11:51:50;;;;;;;4.60;3.20;;;;;;;;;;4990705;28;20503;-66
2023/06/24 11:54:17;;;;;;;6.32;3.83;;;;;;;;;;4992379;28;20080;-64
2023/06/24 11:56:44;;;;;;;5.57;3.50;;;;;;;;;;4991388;28;20034;-63
2023/06/24 11:59:25;;;;;;;6.28;3.55;;;;;;;;;;4992222;28;20368;-68
2023/06/24 12:01:57;;;;;;;;;;;;;;;;;;4991798;28;20030;-62
2023/06/24 12:04:29;;;;;;;6.63;3.33;;;;;;;;;;4991835;28;19924;-64
2023/06/24 12:06:55;;;;;;;5.43;3.45;;;;;;;;;;4989836;28;20534;-62
2023/06/24 12:09:21;;;;;;;5.45;3.50;;;;;;;;;;4991201;28;20116;-62
2023/06/24 12:11:46;;;;;;;5.60;3.50;;;;;;;;;;5010429;28;20398;-63
2023/06/24 12:14:12;;;;;;;6.45;3.00;;;;;;;;;;5015701;28;20033;-62
2023/06/24 12:16:39;;;;;;;5.50;3.20;;;;;;;;;;5014878;28;20026;-66
2023/06/24 12:19:04;;;;;;;6.85;3.10;;;;;;;;;;5001487;28;20034;-66
2023/06/24 12:21:30;;;;;;;4.65;3.15;;;;;;;;;;5022599;28;20030;-65
2023/06/24 12:23:55;;;;;;;5.03;3.30;;;;;;;;;;5034081;28;20030;-64
2023/06/24 12:26:20;;;;;;;5.97;3.28;;;;;;;;;;5028331;28;20061;-65
2023/06/24 12:28:46;;;;;;;4.93;3.45;;;;;;;;;;4994820;28;20026;-61
2023/06/24 12:31:12;;;;;;;5.13;3.25;;;;;;;;;;5006548;28;20041;-62
2023/06/24 12:33:37;;;;;;;5.03;2.90;;;;;;;;;;5013780;28;20493;-61
2023/06/24 12:36:03;;;;;;;4.80;3.15;;;;;;;;;;4996711;28;20041;-62
2023/06/24 12:38:28;;;;;;;6.18;3.75;;;;;;;;;;4995223;28;20080;-62
2023/06/24 12:40:53;;;;;;;6.60;3.50;;;;;;;;;;4992782;28;20129;-62
2023/06/24 12:43:19;;;;;;;5.95;3.30;;;;;;;;;;4995453;28;20034;-62
2023/06/24 12:45:44;;;;;;;8.32;3.50;;;;;;;;;;5002560;28;20062;-62
2023/06/24 12:48:10;;;;;;;5.93;3.38;;;;;;;;;;5013755;28;20046;-66
2023/06/24 12:50:36;;;;;;;4.90;3.00;;;;;;;;;;5014211;28;20033;-64
2023/06/24 12:53:02;;;;;;;5.10;3.17;;;;;;;;;;5014595;28;20029;-65
2023/06/24 12:55:28;;;;;;;4.28;2.78;;;;;;;;;;5014589;28;20443;-66
2023/06/24 12:57:54;;;;;;;4.90;2.90;;;;;;;;;;5010171;28;20572;-66
2023/06/24 13:00:21;;;;;;;4.65;2.88;;;;;;;;;;5014975;28;20033;-67
2023/06/24 13:02:46;;;;;;;5.45;2.95;;;;;;;;;;5013269;28;20121;-68
2023/06/24 13:05:11;;;;;;;5.15;2.95;;;;;;;;;;5014600;28;20124;-64
2023/06/24 13:07:37;;;;;;;5.30;3.00;;;;;;;;;;5013625;28;20034;-64
2023/06/24 13:10:05;;;;;;;4.43;3.00;;;;;;;;;;5014210;28;20033;-65
2023/06/24 13:12:31;;;;;;;4.05;3.00;;;;;;;;;;5011207;28;20038;-69
2023/06/24 13:14:56;;;;;;;4.55;2.85;;;;;;;;;;5019232;28;20660;-63
2023/06/24 13:17:21;;;;;;;4.10;2.90;;;;;;;;;;5009480;28;20208;-63
2023/06/24 13:19:47;;;;;;;6.03;3.50;;;;;;;;;;5013618;28;20026;-62
2023/06/24 13:22:12;;;;;;;5.90;3.10;;;;;;;;;;5013423;28;20037;-62
2023/06/24 13:24:38;;;;;;;4.32;2.83;;;;;;;;;;5013669;28;20116;-62
2023/06/24 13:27:03;;;;;;;5.38;3.08;;;;;;;;;;5010121;28;20398;-64
2023/06/24 13:29:29;;;;;;;4.55;3.30;;;;;;;;;;5010440;28;20056;-66
2023/06/24 13:31:54;;;;;;;6.15;3.35;;;;;;;;;;5012298;28;20042;-62
2023/06/24 13:34:19;;;;;;;5.75;3.28;;;;;;;;;;5010983;28;20132;-66
2023/06/24 13:41:56;;;;;;;4.30;3.10;;;;;;;;;;5226425;22;20069;-62
2023/06/24 13:44:23;;;;;;;5.07;3.10;;;;;;;;;;5014498;28;20425;-66
2023/06/24 13:46:50;;;;;;;10.18;3.35;;;;;;;;;;5014576;28;20038;-59
2023/06/24 13:49:15;;;;;;;5.22;3.35;;;;;;;;;;5013476;28;20033;-60
2023/06/24 13:51:42;;;;;;;5.30;3.20;;;;;;;;;;4989684;28;20109;-62
2023/06/24 13:54:07;;;;;;;4.30;2.92;;;;;;;;;;4994182;28;20053;-62
2023/06/24 13:56:32;;;;;;;3.88;2.90;;;;;;;;;;4993410;28;20463;-60
2023/06/24 13:58:58;;;;;;;4.15;2.80;;;;;;;;;;4995347;28;20033;-60
2023/06/24 14:01:23;;;;;;;5.20;3.10;;;;;;;;;;4993163;28;20042;-62
2023/06/24 14:03:50;;;;;;;5.13;3.00;;;;;;;;;;4992488;28;20042;-60
2023/06/24 14:06:19;;;;;;;5.28;3.22;;;;;;;;;;4992529;28;20037;-59
2023/06/24 14:08:45;;;;;;;4.60;2.80;;;;;;;;;;4980992;28;20053;-60
2023/06/24 14:11:10;;;;;;;4.90;3.10;;;;;;;;;;4989802;28;20034;-61
2023/06/24 14:13:36;;;;;;;3.88;2.90;;;;;;;;;;4977706;28;20034;-60
2023/06/24 14:16:02;;;;;;;4.93;3.00;;;;;;;;;;4993933;28;20034;-60
2023/06/24 14:18:31;;;;;;;3.90;2.80;;;;;;;;;;4991529;28;20084;-61
2023/06/24 14:20:57;;;;;;;5.67;2.90;;;;;;;;;;4992144;28;20419;-60
2023/06/24 14:23:22;;;;;;;3.95;3.00;;;;;;;;;;4992319;28;20758;-64
2023/06/24 14:25:48;;;;;;;4.80;3.40;;;;;;;;;;4992369;28;20111;-60
2023/06/24 14:28:13;;;;;;;6.25;3.40;;;;;;;;;;4992597;28;20035;-60
2023/06/24 14:30:39;;;;;;;4.45;3.28;;;;;;;;;;4991150;28;20038;-60
2023/06/24 14:33:04;;;;;;;5.75;2.90;;;;;;;;;;4992915;28;20107;-60
2023/06/24 14:35:29;;;;;;;6.03;3.30;;;;;;;;;;4990678;28;20373;-60
2023/06/24 14:37:55;;;;;;;6.22;3.08;;;;;;;;;;4992634;28;20046;-60
2023/06/24 14:40:20;;;;;;;4.50;3.40;;;;;;;;;;4992571;28;20033;-59